Time;durP1;ratioP1;P1;durP2;ratioP2;P2;SDS_P1;SDS_P2;PMS_P1;PMS_P2;Temp;Humidity;BMP_temperature;BMP_pressure;BME280_temperature;BME280_humidity;BME280_pressure;Samples;Min_cycle;Max_cycle;Signal;HPM_P1;HPM_P2
2022/04/09 00:00:00;;;;;;;;;2.40;0.80;;;;;4.74;71.24;98451.97;5016866;28;9773;-61
2022/04/09 00:02:28;;;;;;;;;0.00;0.00;;;;;4.76;71.24;98465.00;5042905;28;8806;-62
2022/04/09 00:04:57;;;;;;;;;0.00;0.00;;;;;4.75;71.46;98456.28;5056308;28;8856;-62
2022/04/09 00:07:25;;;;;;;;;0.00;0.00;;;;;4.77;70.82;98469.31;5056282;28;8843;-62
2022/04/09 00:09:52;;;;;;;;;1.00;0.40;;;;;4.80;71.08;98469.09;5053766;28;8838;-63
2022/04/09 00:12:20;;;;;;;;;1.00;0.60;;;;;4.83;70.67;98467.06;5053974;28;8842;-62
2022/04/09 00:14:48;;;;;;;;;0.00;0.00;;;;;4.83;70.65;98471.47;5056361;28;8842;-64
2022/04/09 00:17:16;;;;;;;;;0.00;0.00;;;;;4.81;71.06;98473.41;5057463;28;8831;-63
2022/04/09 00:19:44;;;;;;;;;0.00;0.00;;;;;4.80;70.88;98482.28;5051409;28;8840;-62
2022/04/09 00:22:11;;;;;;;;;0.40;0.40;;;;;4.79;71.14;98478.78;5035761;28;8906;-65
2022/04/09 00:24:40;;;;;;;;;1.00;1.00;;;;;4.78;71.36;98487.66;5036826;28;8832;-62
2022/04/09 00:27:07;;;;;;;;;0.00;0.00;;;;;4.77;71.38;98491.28;5057411;28;8838;-62
2022/04/09 00:29:35;;;;;;;;;0.00;0.00;;;;;4.81;70.82;98502.41;5057374;28;8830;-62
2022/04/09 00:32:03;;;;;;;;;0.00;0.00;;;;;4.84;70.72;98500.38;5056958;28;8822;-62
2022/04/09 00:34:31;;;;;;;;;0.00;0.00;;;;;4.84;71.23;98503.00;5057431;28;8865;-62
2022/04/09 00:36:58;;;;;;;;;0.60;0.00;;;;;4.87;70.68;98509.84;5055760;28;8831;-62
2022/04/09 00:39:26;;;;;;;;;1.00;0.00;;;;;4.93;70.72;98517.28;5057392;28;8838;-62
2022/04/09 00:41:54;;;;;;;;;1.80;0.60;;;;;4.99;70.60;98516.75;5046161;28;8890;-63
2022/04/09 00:44:22;;;;;;;;;0.40;0.40;;;;;5.05;70.76;98526.81;5036632;28;8859;-62
2022/04/09 00:46:49;;;;;;;;;0.20;0.20;;;;;5.06;70.51;98529.34;5035522;28;9086;-62
2022/04/09 00:49:17;;;;;;;;;0.00;0.00;;;;;5.09;70.64;98537.00;5036282;28;8840;-62
2022/04/09 00:51:45;;;;;;;;;0.00;0.00;;;;;5.13;70.77;98540.22;5036926;28;8820;-62
2022/04/09 00:54:13;;;;;;;;;1.00;1.00;;;;;5.15;70.36;98541.78;5036809;28;8854;-62
2022/04/09 00:56:40;;;;;;;;;0.00;0.00;;;;;5.15;70.29;98548.84;5037264;28;8836;-62
2022/04/09 00:59:10;;;;;;;;;0.00;0.00;;;;;5.15;70.78;98548.84;5047040;28;8908;-62
2022/04/09 01:01:37;;;;;;;;;0.00;0.00;;;;;5.13;70.37;98554.28;5049562;28;8837;-62
2022/04/09 01:04:06;;;;;;;;;0.20;0.20;;;;;5.13;70.71;98563.97;5035611;28;9203;-62
2022/04/09 01:06:33;;;;;;;;;1.00;1.00;;;;;5.07;70.91;98561.81;5038993;28;8852;-63
2022/04/09 01:09:01;;;;;;;;;0.00;0.00;;;;;5.04;71.04;98567.34;5055832;28;8830;-62
2022/04/09 01:11:28;;;;;;;;;0.00;0.00;;;;;5.06;71.18;98574.19;5056429;28;8831;-62
2022/04/09 01:13:56;;;;;;;;;0.00;0.00;;;;;5.08;71.10;98584.63;5046999;28;8832;-63
2022/04/09 01:16:28;;;;;;;;;0.00;0.00;;;;;5.14;70.99;98586.75;5049408;28;8822;-62
2022/04/09 01:18:56;;;;;;;;;0.00;0.00;;;;;5.18;71.11;98601.41;5056569;28;9512;-63
2022/04/09 01:21:24;;;;;;;;;0.00;0.00;;;;;5.21;71.09;98602.00;5054263;28;8835;-63
2022/04/09 01:23:52;;;;;;;;;0.80;0.60;;;;;5.24;70.53;98600.91;5056239;28;8834;-62
2022/04/09 01:26:19;;;;;;;;;3.00;0.00;;;;;5.28;70.42;98607.59;5048234;28;8852;-62
2022/04/09 01:28:48;;;;;;;;;1.80;1.80;;;;;5.31;70.11;98610.03;5036370;28;8857;-62
2022/04/09 01:31:15;;;;;;;;;1.00;1.00;;;;;5.34;70.86;98605.34;5038519;28;8832;-63
2022/04/09 01:33:43;;;;;;;;;0.00;0.00;;;;;5.36;70.87;98619.25;5039537;28;8957;-62
2022/04/09 01:36:14;;;;;;;;;0.00;0.00;;;;;5.37;70.40;98617.44;5048862;28;8837;-65
2022/04/09 01:38:42;;;;;;;;;1.00;1.00;;;;;5.38;70.36;98619.94;5036482;28;8836;-62
2022/04/09 01:41:09;;;;;;;;;1.00;1.00;;;;;5.40;70.94;98627.75;5036991;28;8843;-65
2022/04/09 01:43:38;;;;;;;;;1.00;1.00;;;;;5.41;70.86;98624.16;5036802;28;9486;-63
2022/04/09 01:46:06;;;;;;;;;1.00;1.00;;;;;5.43;70.75;98641.56;5036031;28;8859;-62
2022/04/09 01:48:33;;;;;;;;;3.80;3.00;;;;;5.42;70.49;98636.38;5052688;28;8834;-62
2022/04/09 01:51:02;;;;;;;;;1.40;1.00;;;;;5.41;70.52;98643.44;5055462;28;8892;-62
2022/04/09 01:53:29;;;;;;;;;0.00;0.00;;;;;5.40;70.57;98648.88;5055138;28;8817;-62
2022/04/09 01:55:58;;;;;;;;;1.00;0.60;;;;;5.38;70.54;98651.63;5044443;28;8833;-63
2022/04/09 01:58:26;;;;;;;;;0.40;0.20;;;;;5.38;71.45;98662.19;5036623;28;8852;-62
2022/04/09 02:00:58;;;;;;;;;1.00;0.40;;;;;5.39;70.65;98665.69;5041911;28;8806;-62
2022/04/09 02:03:26;;;;;;;;;0.20;0.00;;;;;5.40;70.88;98662.06;5055433;28;8937;-62
2022/04/09 02:05:54;;;;;;;;;0.00;0.00;;;;;5.41;71.10;98666.38;5055740;28;8830;-62
2022/04/09 02:08:22;;;;;;;;;0.00;0.00;;;;;5.42;71.57;98668.06;5055721;28;8976;-62
2022/04/09 02:10:50;;;;;;;;;0.00;0.00;;;;;5.42;71.17;98668.06;5053878;28;8822;-62
2022/04/09 02:13:19;;;;;;;;;1.60;0.80;;;;;5.42;70.95;98665.41;5054642;28;8839;-62
2022/04/09 02:15:47;;;;;;;;;1.00;1.00;;;;;5.41;71.07;98682.22;5055095;28;8838;-63
2022/04/09 02:18:14;;;;;;;;;0.40;0.40;;;;;5.40;71.12;98681.38;5047683;28;9458;-62
2022/04/09 02:20:42;;;;;;;;;1.20;0.40;;;;;5.40;71.19;98689.28;5034168;28;8833;-62
2022/04/09 02:23:11;;;;;;;;;0.00;0.00;;;;;5.40;71.15;98702.47;5035739;28;8809;-62
2022/04/09 02:25:39;;;;;;;;;1.00;1.00;;;;;5.41;71.63;98698.88;5035848;28;8871;-62
2022/04/09 02:28:07;;;;;;;;;1.00;0.40;;;;;5.41;71.25;98708.63;5035699;28;8864;-63
2022/04/09 02:30:34;;;;;;;;;0.00;0.00;;;;;5.42;71.19;98710.28;5043793;28;9476;-63
2022/04/09 02:33:02;;;;;;;;;0.00;0.00;;;;;5.43;71.59;98717.25;5053871;28;8849;-63
2022/04/09 02:35:30;;;;;;;;;0.00;0.00;;;;;5.43;71.67;98718.09;5053367;28;9480;-65
2022/04/09 02:37:58;;;;;;;;;1.00;1.00;;;;;5.44;71.98;98722.41;5035194;28;8841;-62
2022/04/09 02:40:25;;;;;;;;;0.00;0.00;;;;;5.47;71.25;98721.34;5035753;28;8841;-62
2022/04/09 02:42:53;;;;;;;;;0.80;0.80;;;;;5.47;71.44;98723.97;5035173;28;9641;-63
2022/04/09 02:45:21;;;;;;;;;2.60;2.60;;;;;5.46;71.64;98724.94;5035993;28;8832;-62
2022/04/09 02:47:49;;;;;;;;;0.40;0.40;;;;;5.45;71.25;98731.16;5050512;28;8836;-62
2022/04/09 02:50:18;;;;;;;;;4.00;4.00;;;;;5.47;71.91;98737.19;5036713;28;8833;-64
2022/04/09 02:52:46;;;;;;;;;1.00;1.00;;;;;5.48;71.74;98746.78;5035108;28;8805;-63
2022/04/09 02:55:14;;;;;;;;;0.00;0.00;;;;;5.47;71.88;98755.66;5035646;28;8963;-63
2022/04/09 02:57:41;;;;;;;;;0.20;0.20;;;;;5.47;71.76;98748.56;5015813;28;8855;-63
2022/04/09 03:00:11;;;;;;;;;1.00;1.00;;;;;5.47;71.20;98759.13;5022056;28;8856;-62
2022/04/09 03:02:39;;;;;;;;;1.00;0.00;;;;;5.44;71.20;98761.16;5031598;28;8828;-63
2022/04/09 03:05:07;;;;;;;;;4.00;3.00;;;;;5.33;71.79;98780.44;5035080;28;8820;-63
2022/04/09 03:07:35;;;;;;;;;1.60;1.40;;;;;5.20;72.05;98776.25;5034751;28;8817;-63
2022/04/09 03:10:02;;;;;;;;;0.20;0.20;;;;;5.06;72.36;98781.72;5035362;28;9510;-62
2022/04/09 03:12:30;;;;;;;;;0.60;0.00;;;;;4.95;72.73;98790.44;5034498;28;8959;-62
2022/04/09 03:14:58;;;;;;;;;3.00;3.00;;;;;4.89;73.52;98795.34;5034908;28;8820;-62
2022/04/09 03:17:26;;;;;;;;;1.60;1.60;;;;;4.83;73.67;98801.09;5035008;28;8950;-62
2022/04/09 03:19:54;;;;;;;;;4.00;3.20;;;;;4.80;73.35;98801.31;5037180;28;8911;-62
2022/04/09 03:22:22;;;;;;;;;2.20;2.20;;;;;4.78;73.08;98803.25;5034229;28;8817;-62
2022/04/09 03:24:50;;;;;;;;;1.00;1.00;;;;;4.78;72.96;98806.69;5037059;28;8836;-62
2022/04/09 03:27:18;;;;;;;;;1.00;1.00;;;;;4.78;73.58;98811.16;5038699;28;8845;-63
2022/04/09 03:29:46;;;;;;;;;5.20;5.20;;;;;4.79;73.71;98812.84;5039808;28;8843;-62
2022/04/09 03:32:13;;;;;;;;;1.00;1.00;;;;;4.81;73.39;98816.19;5058534;28;8830;-62
2022/04/09 03:34:42;;;;;;;;;1.80;1.80;;;;;4.84;73.08;98827.34;5058633;28;8846;-62
2022/04/09 03:37:10;;;;;;;;;3.00;3.00;;;;;4.88;72.99;98826.16;5042525;28;8828;-62
2022/04/09 03:39:39;;;;;;;;;2.20;2.20;;;;;4.90;73.30;98828.69;5037461;28;8882;-62
2022/04/09 03:42:06;;;;;;;;;5.60;5.60;;;;;4.93;72.73;98829.28;5037140;28;8817;-62
2022/04/09 03:44:45;;;;;;;;;3.40;3.40;;;;;4.96;72.89;98838.78;5037960;28;8832;-62
2022/04/09 03:47:13;;;;;;;;;5.60;4.40;;;;;4.97;73.08;98836.03;5039294;28;8837;-62
2022/04/09 03:49:41;;;;;;;;;3.00;3.00;;;;;4.99;73.08;98842.03;5038035;28;8851;-62
2022/04/09 03:52:09;;;;;;;;;3.00;2.60;;;;;4.99;73.00;98838.53;5053737;28;8846;-63
2022/04/09 03:54:38;;;;;;;;;3.60;1.00;;;;;4.99;72.87;98847.31;5057572;28;8811;-63
2022/04/09 03:57:05;;;;;;;;;0.20;0.20;;;;;4.99;73.12;98842.03;5057567;28;8857;-63
2022/04/09 03:59:33;;;;;;;;;3.00;1.00;;;;;4.99;72.86;98852.59;5057876;28;8956;-62
2022/04/09 04:02:01;;;;;;;;;3.00;1.00;;;;;5.01;72.91;98857.75;5052857;28;8849;-62
2022/04/09 04:04:29;;;;;;;;;4.00;2.20;;;;;5.02;72.66;98859.44;5057360;28;8943;-63
2022/04/09 04:06:56;;;;;;;;;1.00;1.00;;;;;5.00;73.35;98872.72;5057249;28;8833;-62
2022/04/09 04:09:24;;;;;;;;;0.20;0.20;;;;;5.00;72.58;98872.72;5057341;28;8822;-62
2022/04/09 04:11:52;;;;;;;;;1.00;1.00;;;;;5.01;72.92;98863.03;5057694;28;8827;-63
2022/04/09 04:14:21;;;;;;;;;0.00;0.00;;;;;5.01;73.20;98877.03;5056714;28;8854;-62
2022/04/09 04:16:49;;;;;;;;;1.80;1.00;;;;;5.02;73.27;98869.97;5044410;28;8820;-62
2022/04/09 04:19:17;;;;;;;;;3.80;3.40;;;;;5.03;73.33;98883.03;5037646;28;9522;-63
2022/04/09 04:21:46;;;;;;;;;2.80;2.20;;;;;5.03;73.31;98887.50;5052518;28;8847;-62
2022/04/09 04:24:14;;;;;;;;;0.00;0.00;;;;;5.08;73.08;98893.28;5048025;28;8947;-63
2022/04/09 04:26:42;;;;;;;;;1.40;1.00;;;;;5.08;72.91;98898.56;5036423;28;8841;-63
2022/04/09 04:29:09;;;;;;;;;1.80;1.80;;;;;5.10;72.61;98901.91;5037390;28;8879;-62
2022/04/09 04:31:37;;;;;;;;;3.60;3.60;;;;;5.11;73.03;98900.94;5053572;28;8823;-62
2022/04/09 04:34:05;;;;;;;;;1.00;1.00;;;;;5.13;72.68;98904.31;5036499;28;8859;-63
2022/04/09 04:36:33;;;;;;;;;0.80;0.80;;;;;5.14;73.20;98900.72;5037141;28;8828;-64
2022/04/09 04:39:00;;;;;;;;;3.20;2.00;;;;;5.12;73.24;98900.84;5037532;28;8852;-63
2022/04/09 04:41:28;;;;;;;;;1.00;1.00;;;;;5.11;72.68;98908.88;5036312;28;8916;-62
2022/04/09 04:43:56;;;;;;;;;0.60;0.60;;;;;5.08;72.93;98906.47;5036156;28;8842;-62
2022/04/09 04:46:24;;;;;;;;;2.40;1.80;;;;;5.03;73.32;98919.13;5044883;28;8852;-66
2022/04/09 04:48:52;;;;;;;;;0.00;0.00;;;;;5.02;72.96;98935.94;5055608;28;8819;-63
2022/04/09 04:51:19;;;;;;;;;2.20;0.40;;;;;5.03;73.00;98941.06;5055874;28;8846;-62
2022/04/09 04:53:47;;;;;;;;;1.40;1.40;;;;;5.04;73.54;98941.91;5043941;28;9483;-65
2022/04/09 04:56:15;;;;;;;;;1.00;1.00;;;;;5.04;73.12;98948.06;5037061;28;8845;-62
2022/04/09 04:58:43;;;;;;;;;3.60;3.00;;;;;5.02;73.38;98952.56;5047547;28;9496;-62
2022/04/09 05:01:10;;;;;;;;;0.40;0.40;;;;;5.01;73.40;98960.63;5047202;28;8825;-62
2022/04/09 05:03:39;;;;;;;;;4.00;3.60;;;;;4.98;73.15;98971.38;5056325;28;8818;-65
2022/04/09 05:06:09;;;;;;;;;3.00;1.40;;;;;4.91;73.03;98971.00;5056075;28;8845;-63
2022/04/09 05:08:38;;;;;;;;;2.20;2.20;;;;;4.85;73.81;98965.28;5056425;28;8842;-62
2022/04/09 05:11:06;;;;;;;;;3.00;3.00;;;;;4.83;73.97;98985.66;5051646;28;8902;-63
2022/04/09 05:13:34;;;;;;;;;7.00;5.80;;;;;4.80;73.21;98985.91;5036769;28;8886;-62
2022/04/09 05:16:01;;;;;;;;;3.80;3.40;;;;;4.81;73.86;98991.06;5036549;28;8961;-63
2022/04/09 05:18:29;;;;;;;;;3.00;3.00;;;;;4.86;73.44;99001.28;5036364;28;9561;-65
2022/04/09 05:20:57;;;;;;;;;3.40;3.40;;;;;4.90;73.75;99002.75;5036808;28;8825;-62
2022/04/09 05:23:25;;;;;;;;;1.40;1.40;;;;;4.93;73.15;99006.00;5036299;28;8824;-63
2022/04/09 05:25:54;;;;;;;;;0.80;0.80;;;;;4.96;73.44;99000.53;5041430;28;8830;-62
2022/04/09 05:28:21;;;;;;;;;0.80;0.80;;;;;4.99;72.94;99008.22;5039500;28;8864;-63
2022/04/09 05:30:50;;;;;;;;;3.20;1.80;;;;;5.00;73.64;99009.03;5044973;28;8892;-62
2022/04/09 05:33:18;;;;;;;;;3.00;2.60;;;;;5.03;73.00;99014.09;5054975;28;8839;-62
2022/04/09 05:35:46;;;;;;;;;3.60;1.00;;;;;5.04;72.94;99021.06;5054509;28;8835;-63
2022/04/09 05:38:13;;;;;;;;;3.40;3.40;;;;;5.07;72.74;99026.09;5054452;28;8849;-62
2022/04/09 05:40:42;;;;;;;;;1.00;1.00;;;;;5.07;72.79;99015.56;5052422;28;8845;-62
2022/04/09 05:43:10;;;;;;;;;1.00;1.00;;;;;5.07;73.11;99026.09;5054320;28;8814;-62
2022/04/09 05:45:38;;;;;;;;;2.80;1.80;;;;;5.12;73.31;99021.34;5052742;28;8950;-62
2022/04/09 05:48:06;;;;;;;;;1.80;1.80;;;;;5.14;72.68;99032.63;5032801;28;8840;-62
2022/04/09 05:50:34;;;;;;;;;0.00;0.00;;;;;5.16;72.88;99022.81;5032239;28;8859;-63
2022/04/09 05:53:02;;;;;;;;;1.00;1.00;;;;;5.18;73.10;99028.81;5032136;28;8817;-62
2022/04/09 05:55:30;;;;;;;;;1.00;1.00;;;;;5.20;73.13;99038.31;5031970;28;8963;-62
2022/04/09 05:57:58;;;;;;;;;0.40;0.40;;;;;5.25;72.65;99046.72;5032327;28;8986;-62
2022/04/09 06:00:25;;;;;;;;;0.80;0.80;;;;;5.29;72.72;99039.44;5032154;28;8856;-62
2022/04/09 06:02:53;;;;;;;;;0.00;0.00;;;;;5.32;72.62;99049.78;5033339;28;8833;-62
2022/04/09 06:05:21;;;;;;;;;0.00;0.00;;;;;5.39;72.31;99051.03;5034745;28;8823;-63
2022/04/09 06:07:49;;;;;;;;;1.00;1.00;;;;;5.47;72.76;99061.88;5035291;28;8851;-62
2022/04/09 06:10:16;;;;;;;;;2.60;2.60;;;;;5.53;72.65;99058.78;5034653;28;8870;-62
2022/04/09 06:12:44;;;;;;;;;3.00;3.00;;;;;5.56;72.10;99072.56;5034634;28;8879;-62
2022/04/09 06:15:12;;;;;;;;;1.00;0.00;;;;;5.55;72.55;99070.88;5052957;28;8936;-62
2022/04/09 06:17:40;;;;;;;;;0.60;0.60;;;;;5.57;71.93;99074.28;5054351;28;8846;-63
2022/04/09 06:20:08;;;;;;;;;2.20;2.20;;;;;5.63;72.66;99080.91;5045177;28;9525;-63
2022/04/09 06:22:37;;;;;;;;;1.80;1.00;;;;;5.66;72.30;99086.81;5034166;28;9475;-62
2022/04/09 06:25:05;;;;;;;;;0.60;0.60;;;;;5.68;72.29;99091.97;5034516;28;8832;-62
2022/04/09 06:27:35;;;;;;;;;1.40;1.00;;;;;5.68;71.86;99094.63;5034872;28;8841;-62
2022/04/09 06:30:03;;;;;;;;;1.40;1.40;;;;;5.69;72.42;99096.31;5027664;28;8951;-62
2022/04/09 06:32:31;;;;;;;;;2.60;2.60;;;;;5.74;72.22;99095.00;5048452;28;8903;-61
2022/04/09 06:34:59;;;;;;;;;1.00;1.00;;;;;5.79;72.21;99118.44;5033812;28;8852;-61
2022/04/09 06:37:26;;;;;;;;;6.00;6.00;;;;;5.83;71.88;99109.34;5033388;28;8831;-62
2022/04/09 06:39:55;;;;;;;;;0.00;0.00;;;;;5.81;71.90;99114.75;5034016;28;8837;-62
2022/04/09 06:42:23;;;;;;;;;3.00;3.00;;;;;5.77;71.72;99125.63;5051057;28;8827;-62
2022/04/09 06:44:51;;;;;;;;;0.60;0.20;;;;;5.78;72.33;99127.31;5054099;28;9524;-62
2022/04/09 06:47:19;;;;;;;;;1.00;1.00;;;;;5.77;71.96;99134.38;5036984;28;8832;-62
2022/04/09 06:49:46;;;;;;;;;6.00;3.60;;;;;5.63;72.25;99139.00;5034837;28;8855;-62
2022/04/09 06:52:14;;;;;;;;;2.00;2.00;;;;;5.54;72.92;99144.94;5034140;28;8870;-63
2022/04/09 06:54:43;;;;;;;;;4.40;3.80;;;;;5.49;72.67;99152.34;5033625;28;8840;-63
2022/04/09 06:57:10;;;;;;;;;0.60;0.60;;;;;5.47;72.94;99156.91;5034393;28;8922;-62
2022/04/09 06:59:38;;;;;;;;;4.00;4.00;;;;;5.47;73.13;99152.44;5038512;28;8813;-62
2022/04/09 07:02:06;;;;;;;;;4.20;3.00;;;;;5.49;72.72;99153.22;5049067;28;8864;-64
2022/04/09 07:04:34;;;;;;;;;3.40;3.00;;;;;5.68;72.51;99160.66;5056221;28;8819;-62
2022/04/09 07:07:02;;;;;;;;;3.00;3.00;;;;;5.86;72.13;99159.34;5056594;28;8842;-62
2022/04/09 07:09:29;;;;;;;;;3.00;2.20;;;;;5.94;71.53;99168.41;5052920;28;8830;-62
2022/04/09 07:11:57;;;;;;;;;3.00;1.00;;;;;5.98;71.97;99166.34;5043755;28;8819;-62
2022/04/09 07:14:25;;;;;;;;;0.40;0.40;;;;;5.98;71.94;99172.47;5056955;28;8814;-63
2022/04/09 07:16:53;;;;;;;;;2.20;1.80;;;;;6.04;71.58;99163.25;5055669;28;8840;-62
2022/04/09 07:19:20;;;;;;;;;3.00;3.00;;;;;6.12;71.35;99182.03;5057755;28;8847;-63
2022/04/09 07:21:49;;;;;;;;;2.80;1.40;;;;;6.22;71.72;99185.69;5056280;28;8864;-62
2022/04/09 07:24:18;;;;;;;;;1.00;1.00;;;;;6.33;71.38;99180.44;5058365;28;8900;-62
2022/04/09 07:26:45;;;;;;;;;3.20;2.80;;;;;6.48;71.01;99176.66;5044227;28;8844;-62
2022/04/09 07:29:13;;;;;;;;;2.60;2.60;;;;;6.58;71.27;99185.56;5046762;28;8826;-63
2022/04/09 07:31:41;;;;;;;;;2.20;2.20;;;;;6.64;70.48;99174.53;5046672;28;8825;-62
2022/04/09 07:34:10;;;;;;;;;3.60;3.60;;;;;6.72;70.75;99172.13;5039097;28;8848;-62
2022/04/09 07:36:38;;;;;;;;;0.40;0.40;;;;;6.80;70.26;99175.91;5038054;28;8878;-63
2022/04/09 07:39:06;;;;;;;;;1.00;1.00;;;;;6.87;70.38;99181.56;5038409;28;9656;-63
2022/04/09 07:41:33;;;;;;;;;1.00;1.00;;;;;6.80;70.76;99190.91;5037786;28;8848;-62
2022/04/09 07:44:01;;;;;;;;;2.40;2.40;;;;;6.76;70.63;99194.78;5037189;28;8829;-62
2022/04/09 07:46:29;;;;;;;;;3.20;3.00;;;;;6.78;70.87;99195.50;5046861;28;8837;-62
2022/04/09 07:48:59;;;;;;;;;3.00;2.20;;;;;6.81;70.48;99200.56;5051555;28;8840;-62
2022/04/09 07:51:27;;;;;;;;;3.00;2.60;;;;;6.82;70.53;99197.78;5027290;28;8832;-62
2022/04/09 07:53:55;;;;;;;;;3.40;2.20;;;;;6.81;70.39;99204.03;5024235;28;8820;-63
2022/04/09 07:56:23;;;;;;;;;2.20;2.20;;;;;6.80;70.50;99209.44;5037683;28;9498;-62
2022/04/09 07:58:51;;;;;;;;;1.80;1.80;;;;;6.79;70.77;99210.41;5038103;28;8875;-63
2022/04/09 08:01:19;;;;;;;;;3.00;1.40;;;;;6.76;70.41;99215.94;5046907;28;8973;-62
2022/04/09 08:03:48;;;;;;;;;3.00;3.00;;;;;6.76;70.87;99231.81;5056252;28;8841;-63
2022/04/09 08:06:16;;;;;;;;;3.20;3.20;;;;;6.77;70.63;99223.75;5039926;28;8809;-62
2022/04/09 08:08:44;;;;;;;;;3.00;3.00;;;;;6.74;70.74;99225.81;5035454;28;8840;-63
2022/04/09 08:11:11;;;;;;;;;2.60;2.60;;;;;6.75;71.47;99230.13;5051222;28;8838;-62
2022/04/09 08:13:40;;;;;;;;;3.60;3.60;;;;;6.84;70.74;99240.00;5055483;28;8864;-62
2022/04/09 08:16:08;;;;;;;;;6.80;6.40;;;;;6.93;70.59;99244.59;5049368;28;8829;-66
2022/04/09 08:18:37;;;;;;;;;0.00;0.00;;;;;7.02;70.36;99241.25;5035210;28;8816;-63
2022/04/09 08:21:05;;;;;;;;;1.80;1.80;;;;;7.10;70.64;99241.50;5042025;28;8843;-62
2022/04/09 08:23:32;;;;;;;;;5.20;4.40;;;;;7.27;69.83;99249.00;5057306;28;8838;-63
2022/04/09 08:26:00;;;;;;;;;2.60;0.80;;;;;7.42;69.51;99247.81;5057334;28;8810;-62
2022/04/09 08:28:31;;;;;;;;;0.80;0.80;;;;;7.51;69.33;99244.44;5057100;28;8932;-62
2022/04/09 08:30:59;;;;;;;;;1.00;1.00;;;;;7.56;69.55;99247.56;5055000;28;8842;-62
2022/04/09 08:33:27;;;;;;;;;3.00;3.00;;;;;7.56;69.59;99252.84;5055167;28;8870;-65
2022/04/09 08:35:55;;;;;;;;;6.60;6.00;;;;;7.55;69.46;99246.72;5054872;28;8849;-62
2022/04/09 08:38:23;;;;;;;;;3.80;3.80;;;;;7.61;69.48;99250.69;5055896;28;9511;-62
2022/04/09 08:40:50;;;;;;;;;5.60;5.60;;;;;7.70;68.43;99250.81;5055493;28;8823;-62
2022/04/09 08:43:18;;;;;;;;;1.40;1.00;;;;;7.68;68.78;99256.22;5056342;28;8865;-62
2022/04/09 08:45:49;;;;;;;;;3.40;3.40;;;;;7.47;69.63;99261.53;5053169;28;8843;-62
2022/04/09 08:48:17;;;;;;;;;4.40;3.60;;;;;7.17;69.64;99271.84;5036600;28;8832;-62
2022/04/09 08:50:44;;;;;;;;;4.40;3.20;;;;;7.02;70.38;99275.66;5038219;28;8832;-62
2022/04/09 08:53:14;;;;;;;;;8.60;6.80;;;;;7.17;69.51;99274.47;5056640;28;8836;-63
2022/04/09 08:55:43;;;;;;;;;1.80;1.80;;;;;7.43;69.29;99270.69;5056238;28;8876;-62
2022/04/09 08:58:11;;;;;;;;;5.80;4.40;;;;;7.72;68.82;99267.44;5051750;28;8976;-62
2022/04/09 09:00:39;;;;;;;;;5.40;3.20;;;;;8.02;67.65;99265.00;5036492;28;8838;-62
2022/04/09 09:03:10;;;;;;;;;5.20;5.20;;;;;8.39;67.28;99261.09;5053703;28;8811;-62
2022/04/09 09:05:39;;;;;;;;;4.80;4.00;;;;;8.77;66.44;99259.63;5055981;28;8983;-62
2022/04/09 09:08:06;;;;;;;;;3.75;2.00;;;;;8.92;66.04;99271.63;5049202;28;9839;-62
2022/04/09 09:10:35;;;;;;;;;6.50;6.00;;;;;8.94;66.29;99271.47;5037526;28;8840;-63
2022/04/09 09:13:04;;;;;;;;;3.50;3.50;;;;;8.92;66.32;99266.31;5055717;28;8834;-62
2022/04/09 09:15:31;;;;;;;;;4.75;4.25;;;;;8.77;66.44;99264.94;5054105;28;8834;-62
2022/04/09 09:17:59;;;;;;;;;2.75;2.00;;;;;8.59;67.03;99269.09;5035474;28;8942;-62
2022/04/09 09:20:27;;;;;;;;;6.00;4.00;;;;;8.38;67.37;99281.47;5036937;28;8856;-61
2022/04/09 09:22:55;;;;;;;;;4.00;3.20;;;;;8.36;67.90;99290.53;5034574;28;8929;-62
2022/04/09 09:25:22;;;;;;;;;0.00;0.00;;;;;8.74;67.10;99291.72;5035789;28;8828;-62
2022/04/09 09:27:50;;;;;;;;;3.75;3.75;;;;;9.18;65.68;99267.63;5035154;28;9530;-62
2022/04/09 09:30:18;;;;;;;;;5.50;5.50;;;;;9.69;65.43;99276.44;5035000;28;8821;-63
2022/04/09 09:32:46;;;;;;;;;4.00;4.00;;;;;10.11;64.43;99259.41;5035921;28;8841;-62
2022/04/09 09:35:13;;;;;;;;;4.00;3.25;;;;;10.54;63.81;99259.09;5034905;28;8852;-63
2022/04/09 09:37:41;;;;;;;;;6.25;5.50;;;;;10.67;62.81;99260.50;5034808;28;8951;-62
2022/04/09 09:40:09;;;;;;;;;3.75;3.75;;;;;10.49;63.06;99261.31;5041343;28;8868;-63
2022/04/09 09:42:36;;;;;;;;;3.50;3.00;;;;;10.17;63.47;99266.84;5054683;28;8903;-63
2022/04/09 09:45:05;;;;;;;;;4.25;3.75;;;;;9.78;63.82;99280.13;5053396;28;8846;-62
2022/04/09 09:47:32;;;;;;;;;4.50;3.00;;;;;9.57;64.73;99276.66;5035112;28;9003;-62
2022/04/09 09:50:00;;;;;;;;;3.75;3.75;;;;;9.42;64.98;99265.53;5035086;28;8858;-63
2022/04/09 09:52:29;;;;;;;;;1.00;1.00;;;;;9.31;64.51;99268.25;5051520;28;8834;-62
2022/04/09 09:54:56;;;;;;;;;4.00;4.00;;;;;9.19;65.14;99265.81;5053673;28;8846;-63
2022/04/09 09:57:26;;;;;;;;;3.00;3.00;;;;;9.12;65.69;99277.94;5035752;28;8856;-63
2022/04/09 09:59:54;;;;;;;;;3.75;3.75;;;;;9.04;65.22;99267.09;5034292;28;8845;-63
2022/04/09 10:02:22;;;;;;;;;5.00;4.00;;;;;9.02;65.32;99253.94;5045822;28;8833;-63
2022/04/09 10:04:49;;;;;;;;;5.00;5.00;;;;;9.02;64.99;99269.88;5040651;28;8879;-63
2022/04/09 10:07:17;;;;;;;;;5.00;3.75;;;;;8.98;65.02;99263.13;5034301;28;8820;-63
2022/04/09 10:09:45;;;;;;;;;3.00;3.00;;;;;8.89;65.11;99266.56;5034086;28;8852;-63
2022/04/09 10:12:13;;;;;;;;;8.20;7.80;;;;;8.82;65.07;99273.34;5049086;28;9538;-63
2022/04/09 10:14:41;;;;;;;;;4.00;4.00;;;;;8.74;65.13;99280.28;5051234;28;8825;-61
2022/04/09 10:17:09;;;;;;;;;1.00;1.00;;;;;8.67;65.41;99300.34;5039914;28;8891;-62
2022/04/09 10:19:37;;;;;;;;;2.00;1.00;;;;;8.53;65.43;99308.56;5034784;28;8845;-63
2022/04/09 10:22:04;;;;;;;;;3.00;3.00;;;;;8.25;65.54;99304.66;5034237;28;8813;-62
2022/04/09 10:24:32;;;;;;;;;3.20;3.20;;;;;8.05;65.85;99323.94;5034785;28;8836;-62
2022/04/09 10:27:02;;;;;;;;;3.00;3.00;;;;;8.04;65.80;99327.56;5033850;28;8851;-63
2022/04/09 10:29:30;;;;;;;;;1.50;1.50;;;;;8.35;65.78;99313.56;5047897;28;8842;-63
2022/04/09 10:31:57;;;;;;;;;2.00;2.00;;;;;8.68;64.58;99321.41;5041101;28;8828;-63
2022/04/09 10:34:25;;;;;;;;;0.00;0.00;;;;;8.87;64.09;99312.78;5033471;28;9850;-62
2022/04/09 10:36:54;;;;;;;;;1.00;1.00;;;;;9.34;63.48;99307.03;5035391;28;8865;-63
2022/04/09 10:39:21;;;;;;;;;3.25;3.25;;;;;10.51;61.06;99296.63;5034347;28;8974;-63
2022/04/09 10:41:49;;;;;;;;;1.00;1.00;;;;;11.98;58.42;99291.56;5034252;28;8858;-62
2022/04/09 10:44:18;;;;;;;;;0.00;0.00;;;;;12.96;56.22;99282.69;5043928;28;8831;-63
2022/04/09 10:46:54;;;;;;;;;0.50;0.50;;;;;13.74;54.41;99293.34;5041892;28;8902;-64
2022/04/09 10:49:23;;;;;;;;;0.00;0.00;;;;;14.06;54.27;99289.03;5034893;28;8840;-63
2022/04/09 10:51:51;;;;;;;;;1.00;0.50;;;;;14.01;53.93;99285.97;5034725;28;8839;-63
2022/04/09 10:54:18;;;;;;;;;2.50;1.00;;;;;14.42;52.97;99282.50;5034323;28;8842;-62
2022/04/09 10:56:46;;;;;;;;;0.00;0.00;;;;;14.66;53.09;99284.41;5035234;28;8824;-64
2022/04/09 10:59:15;;;;;;;;;0.25;0.25;;;;;15.16;51.89;99277.94;5035376;28;8870;-63
2022/04/09 11:01:43;;;;;;;;;1.00;1.00;;;;;15.98;50.80;99267.81;5047583;28;8831;-63
2022/04/09 11:04:11;;;;;;;;;1.50;1.50;;;;;15.75;50.66;99284.81;5054760;28;8848;-63
2022/04/09 11:06:43;;;;;;;;;0.00;0.00;;;;;15.01;52.05;99284.16;5051136;28;8834;-64
2022/04/09 11:09:11;;;;;;;;;0.00;0.00;;;;;14.16;53.33;99297.78;5053894;28;8850;-63
2022/04/09 11:11:40;;;;;;;;;2.00;0.50;;;;;14.15;53.58;99289.88;5053506;28;8826;-63
2022/04/09 11:14:08;;;;;;;;;0.50;0.50;;;;;13.55;53.65;99296.22;5054049;28;8838;-63
2022/04/09 11:16:38;;;;;;;;;0.50;0.50;;;;;12.52;54.99;99358.31;5048657;28;8811;-64
2022/04/09 11:19:05;;;;;;;;;0.25;0.25;;;;;11.08;58.24;99369.44;5054040;28;8865;-63
2022/04/09 11:21:33;;;;;;;;;0.50;0.50;;;;;9.97;60.39;99374.13;5053420;28;8949;-63
2022/04/09 11:24:01;;;;;;;;;0.00;0.00;;;;;9.26;62.46;99383.88;5054016;28;8854;-62
2022/04/09 11:26:29;;;;;;;;;0.00;0.00;;;;;10.03;61.57;99364.81;5053420;28;8837;-62
2022/04/09 11:28:56;;;;;;;;;2.00;1.00;;;;;10.46;60.39;99371.56;5052341;28;8879;-61
2022/04/09 11:31:24;;;;;;;;;1.00;1.00;;;;;10.32;60.47;99371.09;5043965;28;8860;-62
2022/04/09 11:33:52;;;;;;;;;0.00;0.00;;;;;9.98;61.62;99380.28;5033656;28;8898;-63
2022/04/09 11:36:20;;;;;;;;;1.00;1.00;;;;;9.92;61.58;99373.69;5033069;28;8840;-62
2022/04/09 11:38:47;;;;;;;;;1.00;0.25;;;;;9.59;62.78;99384.53;5034838;28;8816;-62
2022/04/09 11:41:15;;;;;;;;;0.00;0.00;;;;;9.14;63.48;99383.06;5033995;28;9478;-62
2022/04/09 11:43:43;;;;;;;;;0.00;0.00;;;;;8.81;63.73;99377.03;5033909;28;8829;-62
2022/04/09 11:46:11;;;;;;;;;0.00;0.00;;;;;8.49;64.80;99382.28;5039137;28;8832;-61
2022/04/09 11:48:38;;;;;;;;;0.00;0.00;;;;;8.20;65.31;99415.56;5037141;28;8864;-62
2022/04/09 11:51:06;;;;;;;;;0.25;0.25;;;;;7.93;66.02;99446.84;5036741;28;8820;-62